sensor_id;sensor_type;location;lat;lon;timestamp;P1;durP1;ratioP1;P2;durP2;ratioP2
45944;SDS011;31655;48.972;10.686;2023-07-16T00:00:00;12.30;;;9.50;;
45944;SDS011;31655;48.972;10.686;2023-07-16T00:02:29;11.80;;;10.23;;
45944;SDS011;31655;48.972;10.686;2023-07-16T00:04:55;13.02;;;9.13;;
45944;SDS011;31655;48.972;10.686;2023-07-16T00:07:21;16.25;;;11.23;;
45944;SDS011;31655;48.972;10.686;2023-07-16T00:09:47;12.40;;;9.13;;
45944;SDS011;31655;48.972;10.686;2023-07-16T00:12:13;16.13;;;10.48;;
45944;SDS011;31655;48.972;10.686;2023-07-16T00:14:38;16.30;;;8.65;;
45944;SDS011;31655;48.972;10.686;2023-07-16T00:17:04;16.83;;;8.60;;
45944;SDS011;31655;48.972;10.686;2023-07-16T00:19:30;9.98;;;8.43;;
45944;SDS011;31655;48.972;10.686;2023-07-16T00:21:56;14.27;;;9.95;;
45944;SDS011;31655;48.972;10.686;2023-07-16T00:24:22;16.83;;;9.25;;
45944;SDS011;31655;48.972;10.686;2023-07-16T00:26:48;14.50;;;9.02;;
45944;SDS011;31655;48.972;10.686;2023-07-16T00:29:14;15.60;;;9.65;;
45944;SDS011;31655;48.972;10.686;2023-07-16T00:31:40;13.73;;;8.98;;
45944;SDS011;31655;48.972;10.686;2023-07-16T00:34:06;14.68;;;8.90;;
45944;SDS011;31655;48.972;10.686;2023-07-16T00:36:32;12.07;;;9.07;;
45944;SDS011;31655;48.972;10.686;2023-07-16T00:38:58;12.85;;;8.93;;
45944;SDS011;31655;48.972;10.686;2023-07-16T00:41:24;12.18;;;9.63;;
45944;SDS011;31655;48.972;10.686;2023-07-16T00:43:50;17.60;;;9.63;;
45944;SDS011;31655;48.972;10.686;2023-07-16T00:46:15;14.75;;;8.43;;
45944;SDS011;31655;48.972;10.686;2023-07-16T00:48:42;11.25;;;8.95;;
45944;SDS011;31655;48.972;10.686;2023-07-16T00:51:08;12.18;;;9.02;;
45944;SDS011;31655;48.972;10.686;2023-07-16T00:53:34;11.00;;;8.63;;
45944;SDS011;31655;48.972;10.686;2023-07-16T00:56:01;10.32;;;7.53;;
45944;SDS011;31655;48.972;10.686;2023-07-16T00:58:27;9.05;;;6.88;;
45944;SDS011;31655;48.972;10.686;2023-07-16T01:00:54;12.18;;;7.10;;
45944;SDS011;31655;48.972;10.686;2023-07-16T01:03:20;11.13;;;8.05;;
45944;SDS011;31655;48.972;10.686;2023-07-16T01:06:00;11.80;;;7.25;;
45944;SDS011;31655;48.972;10.686;2023-07-16T01:08:47;9.38;;;6.72;;
45944;SDS011;31655;48.972;10.686;2023-07-16T01:11:19;11.07;;;6.72;;
45944;SDS011;31655;48.972;10.686;2023-07-16T01:13:45;11.98;;;7.15;;
45944;SDS011;31655;48.972;10.686;2023-07-16T01:16:21;9.07;;;6.85;;
45944;SDS011;31655;48.972;10.686;2023-07-16T01:18:48;7.53;;;5.70;;
45944;SDS011;31655;48.972;10.686;2023-07-16T01:21:18;11.07;;;5.68;;
45944;SDS011;31655;48.972;10.686;2023-07-16T01:29:54;7.75;;;4.82;;
45944;SDS011;31655;48.972;10.686;2023-07-16T01:32:23;9.55;;;5.13;;
45944;SDS011;31655;48.972;10.686;2023-07-16T01:34:49;6.93;;;4.93;;
45944;SDS011;31655;48.972;10.686;2023-07-16T01:37:17;6.65;;;4.75;;
45944;SDS011;31655;48.972;10.686;2023-07-16T01:39:43;5.13;;;3.72;;
45944;SDS011;31655;48.972;10.686;2023-07-16T01:42:09;3.63;;;3.28;;
45944;SDS011;31655;48.972;10.686;2023-07-16T01:44:35;6.30;;;3.75;;
45944;SDS011;31655;48.972;10.686;2023-07-16T01:47:23;7.82;;;3.80;;
45944;SDS011;31655;48.972;10.686;2023-07-16T01:50:05;5.35;;;3.83;;
45944;SDS011;31655;48.972;10.686;2023-07-16T01:52:31;6.97;;;4.28;;
45944;SDS011;31655;48.972;10.686;2023-07-16T01:54:57;5.32;;;3.65;;
45944;SDS011;31655;48.972;10.686;2023-07-16T01:57:23;5.65;;;4.15;;
45944;SDS011;31655;48.972;10.686;2023-07-16T01:59:49;4.53;;;3.95;;
45944;SDS011;31655;48.972;10.686;2023-07-16T02:02:15;6.05;;;3.38;;
45944;SDS011;31655;48.972;10.686;2023-07-16T02:04:41;4.45;;;3.33;;
45944;SDS011;31655;48.972;10.686;2023-07-16T02:07:06;4.75;;;3.55;;
45944;SDS011;31655;48.972;10.686;2023-07-16T02:09:33;3.70;;;2.67;;
45944;SDS011;31655;48.972;10.686;2023-07-16T02:12:00;4.53;;;3.13;;
45944;SDS011;31655;48.972;10.686;2023-07-16T02:14:26;6.28;;;4.65;;
45944;SDS011;31655;48.972;10.686;2023-07-16T02:16:52;5.70;;;3.67;;
45944;SDS011;31655;48.972;10.686;2023-07-16T02:19:18;4.75;;;3.30;;
45944;SDS011;31655;48.972;10.686;2023-07-16T02:21:44;4.50;;;3.22;;
45944;SDS011;31655;48.972;10.686;2023-07-16T02:24:10;5.25;;;4.03;;
45944;SDS011;31655;48.972;10.686;2023-07-16T02:26:36;5.82;;;3.92;;
45944;SDS011;31655;48.972;10.686;2023-07-16T02:29:02;5.95;;;4.40;;
45944;SDS011;31655;48.972;10.686;2023-07-16T02:31:28;7.60;;;4.30;;
45944;SDS011;31655;48.972;10.686;2023-07-16T02:33:54;10.30;;;4.55;;
45944;SDS011;31655;48.972;10.686;2023-07-16T02:36:20;4.65;;;4.00;;
45944;SDS011;31655;48.972;10.686;2023-07-16T02:38:46;5.93;;;4.13;;
45944;SDS011;31655;48.972;10.686;2023-07-16T02:41:12;6.53;;;4.32;;
45944;SDS011;31655;48.972;10.686;2023-07-16T02:43:38;7.35;;;4.88;;
45944;SDS011;31655;48.972;10.686;2023-07-16T02:46:04;8.65;;;5.63;;
45944;SDS011;31655;48.972;10.686;2023-07-16T02:48:30;7.22;;;4.70;;
45944;SDS011;31655;48.972;10.686;2023-07-16T02:50:55;5.95;;;4.95;;
45944;SDS011;31655;48.972;10.686;2023-07-16T02:53:21;6.95;;;4.00;;
45944;SDS011;31655;48.972;10.686;2023-07-16T02:55:47;5.85;;;3.88;;
45944;SDS011;31655;48.972;10.686;2023-07-16T02:58:13;10.13;;;6.05;;
45944;SDS011;31655;48.972;10.686;2023-07-16T03:00:39;6.45;;;4.32;;
45944;SDS011;31655;48.972;10.686;2023-07-16T03:03:05;4.90;;;4.10;;
45944;SDS011;31655;48.972;10.686;2023-07-16T03:05:31;4.20;;;3.58;;
45944;SDS011;31655;48.972;10.686;2023-07-16T03:07:57;4.22;;;3.35;;
45944;SDS011;31655;48.972;10.686;2023-07-16T03:10:23;9.10;;;4.45;;
45944;SDS011;31655;48.972;10.686;2023-07-16T03:12:51;8.43;;;4.43;;
45944;SDS011;31655;48.972;10.686;2023-07-16T03:15:17;4.97;;;4.30;;
45944;SDS011;31655;48.972;10.686;2023-07-16T03:17:43;6.00;;;4.13;;
45944;SDS011;31655;48.972;10.686;2023-07-16T03:20:11;5.10;;;3.47;;
45944;SDS011;31655;48.972;10.686;2023-07-16T03:22:38;5.20;;;4.03;;
45944;SDS011;31655;48.972;10.686;2023-07-16T03:25:04;4.75;;;4.18;;
45944;SDS011;31655;48.972;10.686;2023-07-16T03:27:30;5.03;;;3.50;;
45944;SDS011;31655;48.972;10.686;2023-07-16T03:29:56;3.45;;;3.10;;
45944;SDS011;31655;48.972;10.686;2023-07-16T03:32:22;5.82;;;4.35;;
45944;SDS011;31655;48.972;10.686;2023-07-16T03:34:48;7.70;;;3.88;;
45944;SDS011;31655;48.972;10.686;2023-07-16T03:37:14;5.97;;;4.22;;
45944;SDS011;31655;48.972;10.686;2023-07-16T03:39:40;5.97;;;4.70;;
45944;SDS011;31655;48.972;10.686;2023-07-16T03:42:06;6.80;;;4.35;;
45944;SDS011;31655;48.972;10.686;2023-07-16T03:44:32;5.03;;;3.60;;
45944;SDS011;31655;48.972;10.686;2023-07-16T03:46:58;4.75;;;3.40;;
45944;SDS011;31655;48.972;10.686;2023-07-16T03:49:24;4.35;;;3.08;;
45944;SDS011;31655;48.972;10.686;2023-07-16T03:51:50;4.93;;;3.30;;
45944;SDS011;31655;48.972;10.686;2023-07-16T03:54:16;5.10;;;3.55;;
45944;SDS011;31655;48.972;10.686;2023-07-16T03:56:42;4.90;;;3.00;;
45944;SDS011;31655;48.972;10.686;2023-07-16T03:59:08;5.15;;;3.72;;
45944;SDS011;31655;48.972;10.686;2023-07-16T04:01:33;7.88;;;3.50;;
45944;SDS011;31655;48.972;10.686;2023-07-16T04:03:59;4.18;;;2.78;;
45944;SDS011;31655;48.972;10.686;2023-07-16T04:06:25;4.20;;;3.80;;
45944;SDS011;31655;48.972;10.686;2023-07-16T04:08:51;7.95;;;3.85;;
45944;SDS011;31655;48.972;10.686;2023-07-16T04:11:17;5.35;;;3.38;;
45944;SDS011;31655;48.972;10.686;2023-07-16T04:13:43;3.72;;;2.60;;
45944;SDS011;31655;48.972;10.686;2023-07-16T04:16:09;7.30;;;3.33;;
45944;SDS011;31655;48.972;10.686;2023-07-16T04:18:35;3.40;;;3.10;;
45944;SDS011;31655;48.972;10.686;2023-07-16T04:21:01;3.60;;;3.00;;
45944;SDS011;31655;48.972;10.686;2023-07-16T04:23:27;4.82;;;3.38;;
45944;SDS011;31655;48.972;10.686;2023-07-16T04:25:55;3.65;;;3.00;;
45944;SDS011;31655;48.972;10.686;2023-07-16T04:28:20;4.57;;;2.70;;
45944;SDS011;31655;48.972;10.686;2023-07-16T04:30:46;6.20;;;2.88;;
45944;SDS011;31655;48.972;10.686;2023-07-16T04:33:12;3.03;;;2.58;;
45944;SDS011;31655;48.972;10.686;2023-07-16T04:35:39;7.53;;;2.92;;
45944;SDS011;31655;48.972;10.686;2023-07-16T04:38:04;5.20;;;3.33;;
45944;SDS011;31655;48.972;10.686;2023-07-16T04:40:32;4.97;;;3.28;;
45944;SDS011;31655;48.972;10.686;2023-07-16T04:42:58;5.15;;;3.00;;
45944;SDS011;31655;48.972;10.686;2023-07-16T04:45:24;4.57;;;3.72;;
45944;SDS011;31655;48.972;10.686;2023-07-16T04:47:50;4.00;;;2.75;;
45944;SDS011;31655;48.972;10.686;2023-07-16T04:50:16;5.05;;;3.42;;
45944;SDS011;31655;48.972;10.686;2023-07-16T04:52:42;8.35;;;3.65;;
45944;SDS011;31655;48.972;10.686;2023-07-16T04:55:08;5.00;;;3.15;;
45944;SDS011;31655;48.972;10.686;2023-07-16T04:57:34;6.55;;;3.45;;
45944;SDS011;31655;48.972;10.686;2023-07-16T05:00:00;4.70;;;3.20;;
45944;SDS011;31655;48.972;10.686;2023-07-16T05:02:27;8.88;;;4.10;;
45944;SDS011;31655;48.972;10.686;2023-07-16T05:04:53;6.20;;;3.70;;
45944;SDS011;31655;48.972;10.686;2023-07-16T05:07:19;8.38;;;4.30;;
45944;SDS011;31655;48.972;10.686;2023-07-16T05:09:45;5.50;;;2.80;;
45944;SDS011;31655;48.972;10.686;2023-07-16T05:12:11;6.15;;;3.60;;
45944;SDS011;31655;48.972;10.686;2023-07-16T05:14:44;10.70;;;3.85;;
45944;SDS011;31655;48.972;10.686;2023-07-16T05:17:13;6.05;;;3.58;;
45944;SDS011;31655;48.972;10.686;2023-07-16T05:19:40;8.20;;;4.28;;
45944;SDS011;31655;48.972;10.686;2023-07-16T05:22:06;6.10;;;3.47;;
45944;SDS011;31655;48.972;10.686;2023-07-16T05:24:32;7.85;;;3.67;;
45944;SDS011;31655;48.972;10.686;2023-07-16T05:26:58;6.88;;;3.80;;
45944;SDS011;31655;48.972;10.686;2023-07-16T05:29:24;6.63;;;4.40;;
45944;SDS011;31655;48.972;10.686;2023-07-16T05:31:50;9.82;;;4.28;;
45944;SDS011;31655;48.972;10.686;2023-07-16T05:34:16;7.85;;;4.82;;
45944;SDS011;31655;48.972;10.686;2023-07-16T05:36:42;7.72;;;4.43;;
45944;SDS011;31655;48.972;10.686;2023-07-16T05:39:09;4.75;;;3.60;;
45944;SDS011;31655;48.972;10.686;2023-07-16T05:41:37;6.53;;;3.55;;
45944;SDS011;31655;48.972;10.686;2023-07-16T05:44:03;6.50;;;3.55;;
45944;SDS011;31655;48.972;10.686;2023-07-16T05:46:29;8.00;;;4.10;;
45944;SDS011;31655;48.972;10.686;2023-07-16T05:48:55;5.45;;;3.70;;
45944;SDS011;31655;48.972;10.686;2023-07-16T05:51:21;8.48;;;4.22;;
45944;SDS011;31655;48.972;10.686;2023-07-16T05:53:47;7.47;;;3.47;;
45944;SDS011;31655;48.972;10.686;2023-07-16T05:56:13;7.07;;;3.47;;
45944;SDS011;31655;48.972;10.686;2023-07-16T05:58:39;8.00;;;3.88;;
45944;SDS011;31655;48.972;10.686;2023-07-16T06:01:06;9.38;;;3.78;;
45944;SDS011;31655;48.972;10.686;2023-07-16T06:03:32;6.82;;;4.30;;
45944;SDS011;31655;48.972;10.686;2023-07-16T06:05:57;4.68;;;2.97;;
45944;SDS011;31655;48.972;10.686;2023-07-16T06:08:23;8.68;;;3.72;;
45944;SDS011;31655;48.972;10.686;2023-07-16T06:10:50;10.93;;;4.82;;
45944;SDS011;31655;48.972;10.686;2023-07-16T06:13:16;8.35;;;3.55;;
45944;SDS011;31655;48.972;10.686;2023-07-16T06:15:42;3.97;;;3.25;;
45944;SDS011;31655;48.972;10.686;2023-07-16T06:18:09;6.93;;;4.20;;
45944;SDS011;31655;48.972;10.686;2023-07-16T06:20:36;6.88;;;3.55;;
45944;SDS011;31655;48.972;10.686;2023-07-16T06:23:02;7.63;;;4.05;;
45944;SDS011;31655;48.972;10.686;2023-07-16T06:25:28;8.57;;;3.80;;
45944;SDS011;31655;48.972;10.686;2023-07-16T06:27:54;9.25;;;4.65;;
45944;SDS011;31655;48.972;10.686;2023-07-16T06:30:20;8.63;;;4.50;;
45944;SDS011;31655;48.972;10.686;2023-07-16T06:32:46;9.32;;;4.30;;
45944;SDS011;31655;48.972;10.686;2023-07-16T06:35:11;8.60;;;4.47;;
45944;SDS011;31655;48.972;10.686;2023-07-16T06:37:38;11.52;;;4.13;;
45944;SDS011;31655;48.972;10.686;2023-07-16T06:40:04;10.63;;;3.97;;
45944;SDS011;31655;48.972;10.686;2023-07-16T06:42:30;8.13;;;4.43;;
45944;SDS011;31655;48.972;10.686;2023-07-16T06:44:56;6.57;;;3.55;;
45944;SDS011;31655;48.972;10.686;2023-07-16T06:47:22;7.53;;;4.55;;
45944;SDS011;31655;48.972;10.686;2023-07-16T06:49:48;8.23;;;3.90;;
45944;SDS011;31655;48.972;10.686;2023-07-16T06:52:21;8.70;;;3.45;;
45944;SDS011;31655;48.972;10.686;2023-07-16T06:54:47;8.73;;;3.40;;
45944;SDS011;31655;48.972;10.686;2023-07-16T06:57:13;11.95;;;4.95;;
45944;SDS011;31655;48.972;10.686;2023-07-16T06:59:39;8.55;;;4.65;;
45944;SDS011;31655;48.972;10.686;2023-07-16T07:02:05;10.40;;;4.28;;
45944;SDS011;31655;48.972;10.686;2023-07-16T07:04:32;8.35;;;4.68;;
45944;SDS011;31655;48.972;10.686;2023-07-16T07:06:59;4.65;;;3.88;;
45944;SDS011;31655;48.972;10.686;2023-07-16T07:09:25;11.23;;;5.95;;
45944;SDS011;31655;48.972;10.686;2023-07-16T07:11:51;11.45;;;4.05;;
45944;SDS011;31655;48.972;10.686;2023-07-16T07:14:17;6.97;;;4.78;;
45944;SDS011;31655;48.972;10.686;2023-07-16T07:16:43;6.10;;;3.90;;
45944;SDS011;31655;48.972;10.686;2023-07-16T07:19:09;6.30;;;4.25;;
45944;SDS011;31655;48.972;10.686;2023-07-16T07:21:35;7.07;;;3.38;;
45944;SDS011;31655;48.972;10.686;2023-07-16T07:24:01;8.55;;;3.97;;
45944;SDS011;31655;48.972;10.686;2023-07-16T07:26:27;6.32;;;3.38;;
45944;SDS011;31655;48.972;10.686;2023-07-16T07:28:53;9.55;;;4.22;;
45944;SDS011;31655;48.972;10.686;2023-07-16T07:31:19;6.60;;;3.03;;
45944;SDS011;31655;48.972;10.686;2023-07-16T07:33:45;11.25;;;7.75;;
45944;SDS011;31655;48.972;10.686;2023-07-16T07:36:11;7.25;;;4.97;;
45944;SDS011;31655;48.972;10.686;2023-07-16T07:38:37;12.75;;;6.28;;
45944;SDS011;31655;48.972;10.686;2023-07-16T07:41:04;6.95;;;5.10;;
45944;SDS011;31655;48.972;10.686;2023-07-16T07:43:31;12.25;;;6.38;;
45944;SDS011;31655;48.972;10.686;2023-07-16T07:45:57;8.85;;;4.10;;
45944;SDS011;31655;48.972;10.686;2023-07-16T07:48:23;4.70;;;3.55;;
45944;SDS011;31655;48.972;10.686;2023-07-16T07:50:49;6.28;;;3.75;;
45944;SDS011;31655;48.972;10.686;2023-07-16T07:53:15;8.52;;;5.32;;
45944;SDS011;31655;48.972;10.686;2023-07-16T07:55:43;7.97;;;3.28;;
45944;SDS011;31655;48.972;10.686;2023-07-16T07:58:09;4.65;;;2.80;;
45944;SDS011;31655;48.972;10.686;2023-07-16T08:00:35;3.47;;;1.92;;
45944;SDS011;31655;48.972;10.686;2023-07-16T08:03:01;5.45;;;2.47;;
45944;SDS011;31655;48.972;10.686;2023-07-16T08:05:31;6.07;;;2.78;;
45944;SDS011;31655;48.972;10.686;2023-07-16T08:07:56;5.18;;;3.15;;
45944;SDS011;31655;48.972;10.686;2023-07-16T08:10:22;8.38;;;4.03;;
45944;SDS011;31655;48.972;10.686;2023-07-16T08:12:48;4.53;;;2.75;;
45944;SDS011;31655;48.972;10.686;2023-07-16T08:15:14;6.07;;;2.20;;
45944;SDS011;31655;48.972;10.686;2023-07-16T08:17:44;5.13;;;2.53;;
45944;SDS011;31655;48.972;10.686;2023-07-16T08:20:10;7.05;;;3.17;;
45944;SDS011;31655;48.972;10.686;2023-07-16T08:22:36;8.38;;;4.28;;
45944;SDS011;31655;48.972;10.686;2023-07-16T08:25:03;7.68;;;3.33;;
45944;SDS011;31655;48.972;10.686;2023-07-16T08:27:29;6.95;;;3.25;;
45944;SDS011;31655;48.972;10.686;2023-07-16T08:29:55;14.02;;;3.15;;
45944;SDS011;31655;48.972;10.686;2023-07-16T08:40:06;6.25;;;2.88;;
45944;SDS011;31655;48.972;10.686;2023-07-16T08:42:34;14.15;;;6.97;;
45944;SDS011;31655;48.972;10.686;2023-07-16T08:45:09;5.80;;;2.95;;
45944;SDS011;31655;48.972;10.686;2023-07-16T08:47:35;6.93;;;3.95;;
45944;SDS011;31655;48.972;10.686;2023-07-16T08:50:01;18.33;;;12.55;;
45944;SDS011;31655;48.972;10.686;2023-07-16T08:52:27;7.82;;;4.07;;
45944;SDS011;31655;48.972;10.686;2023-07-16T08:54:53;6.88;;;3.40;;
45944;SDS011;31655;48.972;10.686;2023-07-16T08:57:20;7.88;;;3.47;;
45944;SDS011;31655;48.972;10.686;2023-07-16T08:59:47;6.20;;;2.50;;
45944;SDS011;31655;48.972;10.686;2023-07-16T09:02:19;9.85;;;3.63;;
45944;SDS011;31655;48.972;10.686;2023-07-16T09:04:46;7.80;;;3.50;;
45944;SDS011;31655;48.972;10.686;2023-07-16T09:07:12;7.45;;;3.20;;
45944;SDS011;31655;48.972;10.686;2023-07-16T09:09:38;8.32;;;3.35;;
45944;SDS011;31655;48.972;10.686;2023-07-16T09:12:04;6.15;;;2.92;;
45944;SDS011;31655;48.972;10.686;2023-07-16T09:27:30;7.53;;;4.50;;
45944;SDS011;31655;48.972;10.686;2023-07-16T09:29:56;11.85;;;4.15;;
45944;SDS011;31655;48.972;10.686;2023-07-16T09:32:32;7.25;;;3.83;;
45944;SDS011;31655;48.972;10.686;2023-07-16T09:34:58;5.93;;;3.67;;
45944;SDS011;31655;48.972;10.686;2023-07-16T09:37:26;7.10;;;3.55;;
45944;SDS011;31655;48.972;10.686;2023-07-16T09:39:53;5.90;;;3.05;;
45944;SDS011;31655;48.972;10.686;2023-07-16T09:42:19;8.48;;;4.28;;
45944;SDS011;31655;48.972;10.686;2023-07-16T09:44:46;9.18;;;5.43;;
45944;SDS011;31655;48.972;10.686;2023-07-16T09:47:14;10.82;;;4.10;;
45944;SDS011;31655;48.972;10.686;2023-07-16T09:49:39;7.53;;;3.75;;
45944;SDS011;31655;48.972;10.686;2023-07-16T09:52:05;13.32;;;6.35;;
45944;SDS011;31655;48.972;10.686;2023-07-16T09:54:32;10.68;;;5.88;;
45944;SDS011;31655;48.972;10.686;2023-07-16T09:57:00;12.38;;;7.25;;
45944;SDS011;31655;48.972;10.686;2023-07-16T09:59:29;8.60;;;5.38;;
45944;SDS011;31655;48.972;10.686;2023-07-16T10:01:57;9.05;;;4.75;;
45944;SDS011;31655;48.972;10.686;2023-07-16T10:04:23;8.77;;;5.05;;
45944;SDS011;31655;48.972;10.686;2023-07-16T10:06:50;7.38;;;4.80;;
45944;SDS011;31655;48.972;10.686;2023-07-16T10:12:11;10.50;;;5.25;;
45944;SDS011;31655;48.972;10.686;2023-07-16T10:14:48;8.40;;;5.15;;
45944;SDS011;31655;48.972;10.686;2023-07-16T10:17:22;10.15;;;5.25;;
45944;SDS011;31655;48.972;10.686;2023-07-16T10:22:36;12.25;;;4.45;;
45944;SDS011;31655;48.972;10.686;2023-07-16T10:25:05;8.52;;;4.60;;
45944;SDS011;31655;48.972;10.686;2023-07-16T10:27:35;8.90;;;5.20;;
45944;SDS011;31655;48.972;10.686;2023-07-16T10:30:02;9.27;;;5.15;;
45944;SDS011;31655;48.972;10.686;2023-07-16T10:32:30;13.05;;;5.82;;
45944;SDS011;31655;48.972;10.686;2023-07-16T10:34:57;8.95;;;4.80;;
45944;SDS011;31655;48.972;10.686;2023-07-16T10:37:23;14.00;;;6.13;;
45944;SDS011;31655;48.972;10.686;2023-07-16T10:39:50;11.98;;;5.15;;
45944;SDS011;31655;48.972;10.686;2023-07-16T10:42:17;9.07;;;5.10;;
45944;SDS011;31655;48.972;10.686;2023-07-16T10:44:44;8.52;;;5.38;;
45944;SDS011;31655;48.972;10.686;2023-07-16T10:47:20;9.93;;;5.28;;
45944;SDS011;31655;48.972;10.686;2023-07-16T10:49:50;7.50;;;4.45;;
45944;SDS011;31655;48.972;10.686;2023-07-16T10:52:19;10.23;;;3.95;;
45944;SDS011;31655;48.972;10.686;2023-07-16T10:54:48;8.95;;;4.05;;
45944;SDS011;31655;48.972;10.686;2023-07-16T10:57:15;8.00;;;5.07;;
45944;SDS011;31655;48.972;10.686;2023-07-16T10:59:41;9.65;;;3.83;;
45944;SDS011;31655;48.972;10.686;2023-07-16T11:02:10;9.50;;;3.83;;
45944;SDS011;31655;48.972;10.686;2023-07-16T11:04:39;6.57;;;3.95;;
45944;SDS011;31655;48.972;10.686;2023-07-16T11:07:06;7.40;;;4.38;;
45944;SDS011;31655;48.972;10.686;2023-07-16T11:09:33;9.43;;;4.03;;
45944;SDS011;31655;48.972;10.686;2023-07-16T11:12:09;8.30;;;4.35;;
45944;SDS011;31655;48.972;10.686;2023-07-16T11:14:36;5.47;;;3.20;;
45944;SDS011;31655;48.972;10.686;2023-07-16T11:17:06;6.65;;;3.60;;
45944;SDS011;31655;48.972;10.686;2023-07-16T11:19:33;6.50;;;2.80;;
45944;SDS011;31655;48.972;10.686;2023-07-16T11:22:00;8.88;;;3.72;;
45944;SDS011;31655;48.972;10.686;2023-07-16T11:24:26;10.38;;;5.68;;
45944;SDS011;31655;48.972;10.686;2023-07-16T11:26:56;7.85;;;4.28;;
45944;SDS011;31655;48.972;10.686;2023-07-16T11:29:22;5.28;;;3.80;;
45944;SDS011;31655;48.972;10.686;2023-07-16T11:31:49;8.75;;;3.95;;
45944;SDS011;31655;48.972;10.686;2023-07-16T11:34:15;9.02;;;3.95;;
45944;SDS011;31655;48.972;10.686;2023-07-16T11:36:42;11.70;;;5.55;;
45944;SDS011;31655;48.972;10.686;2023-07-16T11:39:10;7.13;;;4.43;;
45944;SDS011;31655;48.972;10.686;2023-07-16T11:41:37;7.30;;;4.15;;
45944;SDS011;31655;48.972;10.686;2023-07-16T11:44:03;7.90;;;4.93;;
45944;SDS011;31655;48.972;10.686;2023-07-16T11:46:32;8.88;;;4.50;;
45944;SDS011;31655;48.972;10.686;2023-07-16T11:48:59;9.25;;;4.55;;
45944;SDS011;31655;48.972;10.686;2023-07-16T11:51:25;11.32;;;5.35;;
45944;SDS011;31655;48.972;10.686;2023-07-16T11:53:51;8.38;;;4.03;;
45944;SDS011;31655;48.972;10.686;2023-07-16T11:56:17;9.38;;;4.60;;
45944;SDS011;31655;48.972;10.686;2023-07-16T11:58:43;13.38;;;4.78;;
45944;SDS011;31655;48.972;10.686;2023-07-16T12:01:09;9.73;;;4.82;;
45944;SDS011;31655;48.972;10.686;2023-07-16T12:03:35;11.77;;;5.18;;
45944;SDS011;31655;48.972;10.686;2023-07-16T12:06:01;10.05;;;5.45;;
45944;SDS011;31655;48.972;10.686;2023-07-16T12:08:27;9.60;;;4.60;;
45944;SDS011;31655;48.972;10.686;2023-07-16T12:10:54;9.65;;;4.72;;
45944;SDS011;31655;48.972;10.686;2023-07-16T12:13:20;11.25;;;5.15;;
45944;SDS011;31655;48.972;10.686;2023-07-16T12:15:46;11.85;;;4.82;;
45944;SDS011;31655;48.972;10.686;2023-07-16T12:18:12;8.55;;;4.95;;
45944;SDS011;31655;48.972;10.686;2023-07-16T12:20:38;9.30;;;5.13;;
45944;SDS011;31655;48.972;10.686;2023-07-16T12:23:04;8.05;;;4.88;;
45944;SDS011;31655;48.972;10.686;2023-07-16T12:25:31;13.88;;;5.88;;
45944;SDS011;31655;48.972;10.686;2023-07-16T12:27:56;10.07;;;5.32;;
45944;SDS011;31655;48.972;10.686;2023-07-16T12:30:23;9.23;;;5.63;;
45944;SDS011;31655;48.972;10.686;2023-07-16T12:32:49;10.85;;;4.50;;
45944;SDS011;31655;48.972;10.686;2023-07-16T12:35:15;9.10;;;5.65;;
45944;SDS011;31655;48.972;10.686;2023-07-16T12:37:41;11.38;;;5.32;;
45944;SDS011;31655;48.972;10.686;2023-07-16T12:40:07;7.78;;;4.22;;
45944;SDS011;31655;48.972;10.686;2023-07-16T12:42:33;11.75;;;5.07;;
45944;SDS011;31655;48.972;10.686;2023-07-16T12:44:59;4.40;;;3.42;;
45944;SDS011;31655;48.972;10.686;2023-07-16T12:47:25;7.50;;;3.80;;
45944;SDS011;31655;48.972;10.686;2023-07-16T12:49:51;8.40;;;4.28;;
45944;SDS011;31655;48.972;10.686;2023-07-16T12:52:17;10.15;;;4.20;;
45944;SDS011;31655;48.972;10.686;2023-07-16T12:54:43;4.57;;;3.58;;
45944;SDS011;31655;48.972;10.686;2023-07-16T12:57:08;4.82;;;3.85;;
45944;SDS011;31655;48.972;10.686;2023-07-16T12:59:34;4.82;;;3.47;;
45944;SDS011;31655;48.972;10.686;2023-07-16T13:02:00;5.20;;;3.35;;
45944;SDS011;31655;48.972;10.686;2023-07-16T13:04:27;8.60;;;5.00;;
45944;SDS011;31655;48.972;10.686;2023-07-16T13:06:53;6.70;;;3.92;;
45944;SDS011;31655;48.972;10.686;2023-07-16T13:09:19;7.90;;;3.85;;
45944;SDS011;31655;48.972;10.686;2023-07-16T13:11:45;5.18;;;2.95;;
45944;SDS011;31655;48.972;10.686;2023-07-16T13:14:11;5.20;;;3.38;;
45944;SDS011;31655;48.972;10.686;2023-07-16T13:16:37;4.45;;;2.92;;
45944;SDS011;31655;48.972;10.686;2023-07-16T13:19:03;7.07;;;4.35;;
45944;SDS011;31655;48.972;10.686;2023-07-16T13:21:29;5.07;;;3.72;;
45944;SDS011;31655;48.972;10.686;2023-07-16T13:23:55;4.93;;;2.92;;
45944;SDS011;31655;48.972;10.686;2023-07-16T13:26:21;7.78;;;3.67;;
45944;SDS011;31655;48.972;10.686;2023-07-16T13:28:46;4.50;;;3.25;;
45944;SDS011;31655;48.972;10.686;2023-07-16T13:31:12;5.47;;;3.45;;
45944;SDS011;31655;48.972;10.686;2023-07-16T13:33:38;5.68;;;3.67;;
45944;SDS011;31655;48.972;10.686;2023-07-16T13:36:04;6.78;;;3.20;;
45944;SDS011;31655;48.972;10.686;2023-07-16T13:38:31;5.15;;;3.05;;
45944;SDS011;31655;48.972;10.686;2023-07-16T13:40:56;5.75;;;3.35;;
45944;SDS011;31655;48.972;10.686;2023-07-16T13:43:22;6.57;;;3.20;;
45944;SDS011;31655;48.972;10.686;2023-07-16T13:45:48;5.43;;;3.15;;
45944;SDS011;31655;48.972;10.686;2023-07-16T13:48:14;5.80;;;4.05;;
45944;SDS011;31655;48.972;10.686;2023-07-16T13:50:40;4.57;;;2.90;;
45944;SDS011;31655;48.972;10.686;2023-07-16T13:53:06;5.80;;;3.30;;
45944;SDS011;31655;48.972;10.686;2023-07-16T13:55:32;5.68;;;3.25;;
45944;SDS011;31655;48.972;10.686;2023-07-16T13:57:59;6.00;;;3.33;;
45944;SDS011;31655;48.972;10.686;2023-07-16T14:00:25;7.43;;;3.72;;
45944;SDS011;31655;48.972;10.686;2023-07-16T14:02:51;5.40;;;4.07;;
45944;SDS011;31655;48.972;10.686;2023-07-16T14:05:17;8.50;;;4.70;;
45944;SDS011;31655;48.972;10.686;2023-07-16T14:07:44;6.40;;;3.25;;
45944;SDS011;31655;48.972;10.686;2023-07-16T14:10:10;11.30;;;4.32;;
45944;SDS011;31655;48.972;10.686;2023-07-16T14:12:36;6.53;;;2.80;;
45944;SDS011;31655;48.972;10.686;2023-07-16T14:15:02;6.88;;;3.75;;
45944;SDS011;31655;48.972;10.686;2023-07-16T14:17:28;6.88;;;4.25;;
45944;SDS011;31655;48.972;10.686;2023-07-16T14:19:54;6.50;;;3.45;;
45944;SDS011;31655;48.972;10.686;2023-07-16T14:22:20;8.65;;;3.72;;
45944;SDS011;31655;48.972;10.686;2023-07-16T14:24:49;6.50;;;3.65;;
45944;SDS011;31655;48.972;10.686;2023-07-16T14:27:16;12.40;;;4.60;;
45944;SDS011;31655;48.972;10.686;2023-07-16T14:29:44;5.68;;;4.25;;
45944;SDS011;31655;48.972;10.686;2023-07-16T14:32:10;5.30;;;3.88;;
45944;SDS011;31655;48.972;10.686;2023-07-16T14:34:36;6.78;;;4.60;;
45944;SDS011;31655;48.972;10.686;2023-07-16T14:37:02;7.13;;;4.18;;
45944;SDS011;31655;48.972;10.686;2023-07-16T14:39:29;6.05;;;4.22;;
45944;SDS011;31655;48.972;10.686;2023-07-16T14:41:55;8.10;;;5.65;;
45944;SDS011;31655;48.972;10.686;2023-07-16T14:44:21;4.38;;;3.80;;
45944;SDS011;31655;48.972;10.686;2023-07-16T14:46:47;4.60;;;3.13;;
45944;SDS011;31655;48.972;10.686;2023-07-16T14:49:13;4.78;;;3.50;;
45944;SDS011;31655;48.972;10.686;2023-07-16T14:51:39;6.60;;;3.47;;
45944;SDS011;31655;48.972;10.686;2023-07-16T14:54:08;5.88;;;3.60;;
45944;SDS011;31655;48.972;10.686;2023-07-16T14:56:34;7.47;;;4.10;;
45944;SDS011;31655;48.972;10.686;2023-07-16T14:59:00;4.63;;;3.42;;